createdAt,value
2019-02-25T00:01:05.677Z,103095.98
2019-02-25T00:03:56.486Z,103103.66
2019-02-25T00:06:29.698Z,103090.63
2019-02-25T00:09:01.704Z,103090.53
2019-02-25T00:11:30.458Z,103074.66
2019-02-25T00:14:01.353Z,103071.14
2019-02-25T00:16:32.255Z,103067.00
2019-02-25T00:19:07.814Z,103067.72
2019-02-25T00:21:39.609Z,103075.53
2019-02-25T00:24:11.390Z,103075.57
2019-02-25T00:26:40.627Z,103080.83
2019-02-25T00:29:12.887Z,103083.17
2019-02-25T00:31:47.842Z,103078.03
2019-02-25T00:34:20.041Z,103076.06
2019-02-25T00:36:52.275Z,103082.81
2019-02-25T00:39:28.953Z,103081.17
2019-02-25T00:41:58.640Z,103074.13
2019-02-25T00:44:30.660Z,103081.55
2019-02-25T00:47:04.621Z,103079.00
2019-02-25T00:49:38.036Z,103081.70
2019-02-25T00:52:07.999Z,103079.72
2019-02-25T00:54:42.813Z,103079.12
2019-02-25T00:57:15.061Z,103080.43
2019-02-25T00:59:44.166Z,103079.08
2019-02-25T01:02:12.904Z,103092.86
2019-02-25T01:04:43.902Z,103083.91
2019-02-25T01:07:18.934Z,103071.71
2019-02-25T01:09:49.687Z,103074.56
2019-02-25T01:12:19.034Z,103070.66
2019-02-25T01:14:48.128Z,103059.89
2019-02-25T01:17:17.727Z,103050.20
2019-02-25T01:19:51.934Z,103050.52
2019-02-25T01:22:23.005Z,103049.22
2019-02-25T01:24:53.071Z,103042.31
2019-02-25T01:27:22.315Z,103041.50
2019-02-25T01:29:51.761Z,103036.15
2019-02-25T01:32:23.842Z,103035.33
2019-02-25T01:34:56.179Z,103036.15
2019-02-25T01:37:32.648Z,103053.20
2019-02-25T01:40:03.230Z,103052.50
2019-02-25T01:42:37.302Z,103051.58
2019-02-25T01:45:08.788Z,103051.73
2019-02-25T01:47:40.925Z,103053.86
2019-02-25T01:50:14.877Z,103049.36
2019-02-25T01:52:47.183Z,103035.46
2019-02-25T01:55:16.092Z,103028.67
2019-02-25T01:57:46.252Z,103022.16
2019-02-25T02:00:17.826Z,103030.02
2019-02-25T02:02:46.754Z,103034.05
2019-02-25T02:05:15.834Z,103036.41
2019-02-25T02:07:47.165Z,103030.89
2019-02-25T02:10:17.419Z,103030.10
2019-02-25T02:12:49.688Z,103019.42
2019-02-25T02:15:20.386Z,103021.89
2019-02-25T02:17:50.646Z,103024.04
2019-02-25T02:20:21.632Z,103023.33
2019-02-25T02:22:50.749Z,103025.28
2019-02-25T02:25:24.598Z,103038.20
2019-02-25T02:27:57.853Z,103044.59
2019-02-25T02:30:32.925Z,103049.91
2019-02-25T02:33:01.642Z,103050.04
2019-02-25T02:35:35.530Z,103053.77
2019-02-25T02:38:06.448Z,103049.09
2019-02-25T02:40:40.452Z,103055.28
2019-02-25T02:43:13.580Z,103055.35
2019-02-25T02:45:55.427Z,103045.77
2019-02-25T02:48:40.470Z,103048.31
2019-02-25T02:51:15.412Z,103045.23
2019-02-25T02:53:50.455Z,103039.87
2019-02-25T02:56:21.195Z,103047.27
2019-02-25T02:58:56.451Z,103047.86
2019-02-25T03:01:29.664Z,103046.84
2019-02-25T03:04:02.693Z,103043.59
2019-02-25T03:06:37.649Z,103041.06
2019-02-25T03:09:10.559Z,103056.18
2019-02-25T03:11:41.621Z,103052.98
2019-02-25T03:14:14.094Z,103056.41
2019-02-25T03:16:47.558Z,103060.45
2019-02-25T03:19:21.742Z,103059.48
2019-02-25T03:21:53.656Z,103064.20
2019-02-25T03:24:25.411Z,103060.62
2019-02-25T03:26:57.914Z,103062.80
2019-02-25T03:29:35.155Z,103061.02
2019-02-25T03:32:08.819Z,103059.48
2019-02-25T03:34:39.348Z,103060.56
2019-02-25T03:37:29.053Z,103071.08
2019-02-25T03:40:01.631Z,103061.06
2019-02-25T03:42:32.833Z,103058.08
2019-02-25T03:45:06.091Z,103067.17
2019-02-25T03:47:35.656Z,103073.13
2019-02-25T03:50:10.795Z,103070.27
2019-02-25T03:52:42.097Z,103072.81
2019-02-25T03:55:18.183Z,103075.68
2019-02-25T03:57:50.358Z,103072.96
2019-02-25T04:00:22.309Z,103073.78
2019-02-25T04:02:56.012Z,103064.31
2019-02-25T04:05:30.194Z,103061.66
2019-02-25T04:08:02.749Z,103066.26
2019-02-25T04:10:35.290Z,103065.33
2019-02-25T04:13:08.069Z,103061.48
2019-02-25T04:15:42.599Z,103065.02
2019-02-25T04:18:14.724Z,103070.92
2019-02-25T04:20:49.173Z,103065.27
2019-02-25T04:23:20.223Z,103063.12
2019-02-25T04:25:54.737Z,103063.60
2019-02-25T04:28:27.328Z,103066.56
2019-02-25T04:30:57.968Z,103072.69
2019-02-25T04:33:27.883Z,103069.55
2019-02-25T04:35:57.168Z,103070.91
2019-02-25T04:38:33.612Z,103081.66
2019-02-25T04:41:02.710Z,103079.34
2019-02-25T04:43:34.801Z,103074.61
2019-02-25T04:46:11.663Z,103074.90
2019-02-25T04:48:43.870Z,103073.17
2019-02-25T04:51:13.269Z,103074.59
2019-02-25T04:53:47.826Z,103074.08
2019-02-25T04:56:19.940Z,103068.52
2019-02-25T04:58:54.079Z,103073.17
2019-02-25T05:01:27.801Z,103076.48
2019-02-25T05:04:06.017Z,103075.41
2019-02-25T05:06:40.123Z,103070.22
2019-02-25T05:09:12.029Z,103076.44
2019-02-25T05:11:42.182Z,103073.47
2019-02-25T05:14:16.958Z,103066.84
2019-02-25T05:16:47.067Z,103072.96
2019-02-25T05:19:17.698Z,103074.90
2019-02-25T05:21:47.025Z,103078.66
2019-02-25T05:24:18.021Z,103076.16
2019-02-25T05:26:49.281Z,103071.08
2019-02-25T05:29:18.627Z,103074.59
2019-02-25T05:31:49.546Z,103082.87
2019-02-25T05:34:19.084Z,103079.84
2019-02-25T05:36:52.540Z,103076.26
2019-02-25T05:39:20.753Z,103077.11
2019-02-25T05:41:51.980Z,103076.39
2019-02-25T05:44:25.489Z,103070.65
2019-02-25T05:46:59.181Z,103067.50
2019-02-25T05:49:29.665Z,103064.03
2019-02-25T05:51:59.968Z,103066.54
2019-02-25T05:54:31.798Z,103067.41
2019-02-25T05:57:02.796Z,103066.17
2019-02-25T05:59:34.581Z,103070.61
2019-02-25T06:02:05.434Z,103072.90
2019-02-25T06:04:37.030Z,103070.61
2019-02-25T06:07:10.861Z,103073.00
2019-02-25T06:09:42.879Z,103073.64
2019-02-25T06:12:13.630Z,103073.91
2019-02-25T06:14:46.346Z,103081.25
2019-02-25T06:17:17.147Z,103071.31
2019-02-25T06:19:51.713Z,103059.17
2019-02-25T06:22:23.554Z,103063.40
2019-02-25T06:24:57.164Z,103066.75
2019-02-25T06:27:31.075Z,103052.77
2019-02-25T06:30:01.160Z,103054.67
2019-02-25T06:32:33.342Z,103065.42
2019-02-25T06:35:05.563Z,103074.61
2019-02-25T06:37:37.569Z,103079.61
2019-02-25T06:40:08.856Z,103073.98
2019-02-25T06:42:39.449Z,103079.41
2019-02-25T06:45:14.876Z,103083.21
2019-02-25T06:47:46.039Z,103086.08
2019-02-25T06:50:18.016Z,103092.95
2019-02-25T06:52:51.544Z,103092.47
2019-02-25T06:55:22.220Z,103093.41
2019-02-25T06:57:54.112Z,103091.97
2019-02-25T07:00:25.512Z,103093.20
2019-02-25T07:03:00.237Z,103095.09
2019-02-25T07:05:41.846Z,103086.31
2019-02-25T07:08:32.971Z,103086.19
2019-02-25T07:11:25.791Z,103096.19
2019-02-25T07:14:13.870Z,103086.61
2019-02-25T07:17:00.529Z,103087.78
2019-02-25T07:19:38.399Z,103083.73
2019-02-25T07:22:16.436Z,103097.34
2019-02-25T07:25:07.322Z,103100.48
2019-02-25T07:28:11.417Z,103099.66
2019-02-25T07:31:03.899Z,103100.00
2019-02-25T07:33:53.366Z,103106.88
2019-02-25T07:36:39.811Z,103117.27
2019-02-25T07:39:35.551Z,103114.80
2019-02-25T07:42:11.774Z,103122.02
2019-02-25T07:45:06.549Z,103120.17
2019-02-25T07:47:48.746Z,103120.50
2019-02-25T07:50:28.185Z,103129.30
2019-02-25T07:53:17.682Z,103135.70
2019-02-25T07:56:05.963Z,103142.02
2019-02-25T07:59:07.381Z,103140.08
2019-02-25T08:02:04.052Z,103141.45
2019-02-25T08:04:44.990Z,103142.83
2019-02-25T08:07:45.107Z,103138.89
2019-02-25T08:10:37.385Z,103132.75
2019-02-25T08:13:26.944Z,103124.83
2019-02-25T08:16:34.601Z,103122.97
2019-02-25T08:19:15.667Z,103123.31
2019-02-25T08:22:04.028Z,103121.14
2019-02-25T08:25:03.628Z,103123.89
2019-02-25T08:28:01.622Z,103125.59
2019-02-25T08:30:51.875Z,103125.80
2019-02-25T08:33:42.780Z,103114.98
2019-02-25T08:37:06.604Z,103117.39
2019-02-25T08:39:59.330Z,103120.07
2019-02-25T08:42:35.085Z,103119.48
2019-02-25T08:45:19.062Z,103128.34
2019-02-25T08:47:59.199Z,103136.85
2019-02-25T08:50:33.304Z,103131.70
2019-02-25T08:53:03.315Z,103133.28
2019-02-25T08:55:32.302Z,103124.87
2019-02-25T08:58:00.869Z,103127.39
2019-02-25T09:00:29.439Z,103125.13
2019-02-25T09:02:58.341Z,103125.31
2019-02-25T09:05:27.505Z,103122.51
2019-02-25T09:07:57.684Z,103124.95
2019-02-25T09:10:26.665Z,103128.58
2019-02-25T09:12:57.392Z,103130.78
2019-02-25T09:15:32.589Z,103132.31
2019-02-25T09:18:02.373Z,103133.52
2019-02-25T09:20:31.480Z,103142.64
2019-02-25T09:23:06.022Z,103138.91
2019-02-25T09:25:37.245Z,103132.86
2019-02-25T09:28:07.376Z,103143.98
2019-02-25T09:30:36.585Z,103140.66
2019-02-25T09:33:11.131Z,103134.73
2019-02-25T09:35:40.279Z,103141.46
2019-02-25T09:38:14.568Z,103136.30
2019-02-25T09:40:48.498Z,103129.48
2019-02-25T09:43:18.623Z,103130.54
2019-02-25T09:45:47.871Z,103126.75
2019-02-25T09:48:18.350Z,103131.02
2019-02-25T09:50:47.241Z,103131.02
2019-02-25T09:53:17.807Z,103126.68
2019-02-25T09:55:49.771Z,103115.10
2019-02-25T09:58:18.629Z,103115.10
2019-02-25T10:00:52.229Z,103122.70
2019-02-25T10:03:21.131Z,103121.43
2019-02-25T10:05:52.483Z,103123.28
2019-02-25T10:08:22.902Z,103112.88
2019-02-25T10:10:53.666Z,103112.48
2019-02-25T10:13:25.763Z,103123.59
2019-02-25T10:15:57.391Z,103123.59
2019-02-25T10:18:26.539Z,103123.28
2019-02-25T10:20:58.286Z,103115.88
2019-02-25T10:23:30.669Z,103109.33
2019-02-25T10:26:05.679Z,103107.15
2019-02-25T10:28:34.775Z,103106.31
2019-02-25T10:31:08.426Z,103111.17
2019-02-25T10:33:36.878Z,103102.38
2019-02-25T10:36:08.663Z,103096.70
2019-02-25T10:38:37.715Z,103101.11
2019-02-25T10:41:06.662Z,103094.92
2019-02-25T10:43:41.038Z,103087.42
2019-02-25T10:46:13.419Z,103087.38
2019-02-25T10:48:44.037Z,103086.93
2019-02-25T10:51:17.764Z,103084.77
2019-02-25T10:53:47.795Z,103076.32
2019-02-25T10:56:23.842Z,103075.41
2019-02-25T10:58:59.642Z,103073.17
2019-02-25T11:01:29.795Z,103077.99
2019-02-25T11:03:58.328Z,103071.40
2019-02-25T11:06:29.087Z,103071.81
2019-02-25T11:09:06.888Z,103069.95
2019-02-25T11:11:37.313Z,103058.03
2019-02-25T11:14:09.210Z,103053.05
2019-02-25T11:16:41.925Z,103050.23
2019-02-25T11:19:12.428Z,103043.09
2019-02-25T11:21:44.377Z,103042.19
2019-02-25T11:24:16.691Z,103036.77
2019-02-25T11:26:49.038Z,103042.85
2019-02-25T11:29:21.566Z,103036.11
2019-02-25T11:31:53.133Z,103033.27
2019-02-25T11:34:22.362Z,103025.66
2019-02-25T11:36:55.505Z,103021.98
2019-02-25T11:39:27.572Z,103013.32
2019-02-25T11:41:57.566Z,103011.00
2019-02-25T11:44:31.152Z,103002.14
2019-02-25T11:47:04.677Z,102999.38
2019-02-25T11:49:37.247Z,102984.94
2019-02-25T11:52:07.877Z,102989.25
2019-02-25T11:54:40.139Z,102982.94
2019-02-25T11:57:10.801Z,102980.56
2019-02-25T11:59:42.846Z,102969.57
2019-02-25T12:02:11.587Z,102967.49
2019-02-25T12:04:40.730Z,102965.41
2019-02-25T12:07:13.236Z,102955.59
2019-02-25T12:09:42.264Z,102958.16
2019-02-25T12:12:12.757Z,102959.25
2019-02-25T12:14:47.765Z,102953.70
2019-02-25T12:17:18.733Z,102942.15
2019-02-25T12:19:52.233Z,102931.42
2019-02-25T12:22:24.596Z,102938.55
2019-02-25T12:24:54.902Z,102928.13
2019-02-25T12:27:24.611Z,102912.23
2019-02-25T12:29:57.425Z,102914.05
2019-02-25T12:32:26.337Z,102907.08
2019-02-25T12:34:54.869Z,102898.57
2019-02-25T12:37:25.598Z,102895.59
2019-02-25T12:39:56.322Z,102894.39
2019-02-25T12:42:27.400Z,102893.91
2019-02-25T12:44:58.027Z,102877.52
2019-02-25T12:47:27.609Z,102873.91
2019-02-25T12:50:00.813Z,102867.88
2019-02-25T12:52:31.051Z,102870.22
2019-02-25T12:55:01.552Z,102872.11
2019-02-25T12:57:30.270Z,102874.15
2019-02-25T13:00:04.229Z,102870.67
2019-02-25T13:02:34.793Z,102871.75
2019-02-25T13:05:03.532Z,102870.59
2019-02-25T13:07:36.955Z,102870.14
2019-02-25T13:10:08.537Z,102872.97
2019-02-25T13:12:39.046Z,102868.97
2019-02-25T13:15:13.278Z,102867.64
2019-02-25T13:17:43.808Z,102865.59
2019-02-25T13:20:12.357Z,102860.58
2019-02-25T13:22:43.283Z,102855.23
2019-02-25T13:25:14.607Z,102854.70
2019-02-25T13:27:45.399Z,102853.84
2019-02-25T13:30:15.113Z,102849.39
2019-02-25T13:32:45.462Z,102845.71
2019-02-25T13:35:14.969Z,102844.66
2019-02-25T13:37:48.498Z,102842.34
2019-02-25T13:40:23.686Z,102842.69
2019-02-25T13:42:54.133Z,102835.73
2019-02-25T13:45:24.862Z,102830.65
2019-02-25T13:47:57.028Z,102825.10
2019-02-25T13:50:29.133Z,102823.77
2019-02-25T13:53:03.841Z,102834.62
2019-02-25T13:55:36.804Z,102842.27
2019-02-25T13:58:14.601Z,102837.02
2019-02-25T14:00:51.469Z,102837.02
2019-02-25T14:03:21.656Z,102844.59
2019-02-25T14:05:53.910Z,102848.08
2019-02-25T14:08:24.009Z,102840.48
2019-02-25T14:10:54.435Z,102843.80
2019-02-25T14:13:23.155Z,102844.23
2019-02-25T14:15:55.012Z,102848.88
2019-02-25T14:18:26.633Z,102842.35
2019-02-25T14:20:55.544Z,102840.00
2019-02-25T14:23:30.782Z,102843.25
2019-02-25T14:26:03.711Z,102839.84
2019-02-25T14:28:34.719Z,102837.59
2019-02-25T14:31:10.139Z,102838.61
2019-02-25T14:33:40.036Z,102837.38
2019-02-25T14:36:10.660Z,102832.52
2019-02-25T14:38:41.583Z,102833.79
2019-02-25T14:41:16.054Z,102829.15
2019-02-25T14:43:49.188Z,102826.58
2019-02-25T14:46:21.836Z,102826.14
2019-02-25T14:48:48.879Z,102832.83
2019-02-25T14:51:17.631Z,102837.61
2019-02-25T14:53:52.735Z,102843.65
2019-02-25T14:56:28.175Z,102845.19
2019-02-25T14:59:00.607Z,102843.85
2019-02-25T15:01:29.828Z,102840.92
2019-02-25T15:04:04.315Z,102843.06
2019-02-25T15:06:36.777Z,102842.15
2019-02-25T15:09:09.822Z,102839.42
2019-02-25T15:11:38.996Z,102837.45
2019-02-25T15:14:12.853Z,102838.56
2019-02-25T15:16:42.119Z,102840.00
2019-02-25T15:19:13.339Z,102838.78
2019-02-25T15:21:43.331Z,102838.66
2019-02-25T15:24:16.563Z,102835.46
2019-02-25T15:26:48.879Z,102831.66
2019-02-25T15:29:22.335Z,102831.91
2019-02-25T15:31:57.078Z,102828.15
2019-02-25T15:34:28.524Z,102826.50
2019-02-25T15:36:58.604Z,102816.81
2019-02-25T15:39:28.137Z,102820.02
2019-02-25T15:42:02.085Z,102811.69
2019-02-25T15:44:30.658Z,102813.48
2019-02-25T15:47:02.517Z,102802.08
2019-02-25T15:49:34.683Z,102811.18
2019-02-25T15:52:05.252Z,102801.32
2019-02-25T15:54:39.376Z,102808.18
2019-02-25T15:57:09.022Z,102809.18
2019-02-25T15:59:45.058Z,102801.42
2019-02-25T16:02:18.926Z,102802.52
2019-02-25T16:04:56.418Z,102802.55
2019-02-25T16:07:25.961Z,102814.47
2019-02-25T16:10:03.319Z,102804.16
2019-02-25T16:12:31.440Z,102800.26
2019-02-25T16:15:01.411Z,102794.96
2019-02-25T16:17:35.158Z,102798.97
2019-02-25T16:20:07.541Z,102811.95
2019-02-25T16:22:40.807Z,102819.25
2019-02-25T16:25:14.402Z,102817.97
2019-02-25T16:27:49.398Z,102817.30
2019-02-25T16:30:19.101Z,102818.36
2019-02-25T16:32:48.791Z,102815.82
2019-02-25T16:35:20.942Z,102821.56
2019-02-25T16:37:50.826Z,102817.05
2019-02-25T16:40:26.417Z,102819.13
2019-02-25T16:42:54.985Z,102818.50
2019-02-25T16:45:34.843Z,102822.30
2019-02-25T16:48:04.838Z,102821.22
2019-02-25T16:50:35.293Z,102818.70
2019-02-25T16:53:10.271Z,102820.70
2019-02-25T16:55:39.931Z,102822.59
2019-02-25T16:58:13.225Z,102813.94
2019-02-25T17:00:41.729Z,102829.00
2019-02-25T17:03:13.770Z,102827.00
2019-02-25T17:05:45.634Z,102820.09
2019-02-25T17:08:19.046Z,102827.20
2019-02-25T17:10:53.933Z,102827.20
2019-02-25T17:13:23.491Z,102826.78
2019-02-25T17:15:53.081Z,102828.62
2019-02-25T17:18:23.831Z,102834.83
2019-02-25T17:20:55.880Z,102838.84
2019-02-25T17:23:30.207Z,102835.34
2019-02-25T17:26:02.016Z,102842.00
2019-02-25T17:28:33.506Z,102840.73
2019-02-25T17:31:06.519Z,102842.59
2019-02-25T17:33:42.796Z,102841.76
2019-02-25T17:36:16.597Z,102848.85
2019-02-25T17:38:50.147Z,102840.08
2019-02-25T17:41:20.767Z,102850.17
2019-02-25T17:43:50.036Z,102853.66
2019-02-25T17:46:19.098Z,102860.20
2019-02-25T17:48:48.138Z,102859.75
2019-02-25T17:51:20.866Z,102861.08
2019-02-25T17:53:54.799Z,102865.48
2019-02-25T17:56:26.994Z,102861.09
2019-02-25T17:58:55.772Z,102854.98
2019-02-25T18:01:28.013Z,102857.17
2019-02-25T18:03:56.735Z,102858.02
2019-02-25T18:06:31.952Z,102860.17
2019-02-25T18:09:04.577Z,102858.77
2019-02-25T18:11:33.449Z,102863.94
2019-02-25T18:14:05.274Z,102866.95
2019-02-25T18:16:37.127Z,102868.22
2019-02-25T18:19:09.200Z,102867.30
2019-02-25T18:21:43.850Z,102863.26
2019-02-25T18:24:13.858Z,102871.15
2019-02-25T18:26:52.832Z,102874.64
2019-02-25T18:29:25.177Z,102879.36
2019-02-25T18:31:59.236Z,102871.38
2019-02-25T18:34:32.197Z,102882.62
2019-02-25T18:37:03.425Z,102880.33
2019-02-25T18:39:35.697Z,102875.42
2019-02-25T18:42:11.617Z,102869.25
2019-02-25T18:44:39.975Z,102866.59
2019-02-25T18:47:16.527Z,102868.23
2019-02-25T18:49:47.786Z,102870.84
2019-02-25T18:52:19.591Z,102872.53
2019-02-25T18:54:51.561Z,102882.02
2019-02-25T18:57:21.036Z,102884.54
2019-02-25T18:59:54.802Z,102876.62
2019-02-25T19:02:26.448Z,102877.50
2019-02-25T19:05:02.139Z,102878.95
2019-02-25T19:07:37.714Z,102879.74
2019-02-25T19:10:12.553Z,102880.16
2019-02-25T19:12:43.901Z,102878.76
2019-02-25T19:15:15.474Z,102880.69
2019-02-25T19:17:45.843Z,102878.70
2019-02-25T19:20:17.643Z,102879.44
2019-02-25T19:22:46.518Z,102878.34
2019-02-25T19:25:20.892Z,102879.12
2019-02-25T19:27:52.697Z,102872.02
2019-02-25T19:30:22.298Z,102869.70
2019-02-25T19:32:53.447Z,102874.88
2019-02-25T19:35:25.779Z,102869.02
2019-02-25T19:37:56.090Z,102885.45
2019-02-25T19:40:25.043Z,102876.03
2019-02-25T19:43:00.523Z,102871.38
2019-02-25T19:45:29.890Z,102866.12
2019-02-25T19:48:02.469Z,102862.16
2019-02-25T19:50:32.362Z,102866.37
2019-02-25T19:53:04.570Z,102866.73
2019-02-25T19:55:33.968Z,102868.08
2019-02-25T19:58:04.223Z,102867.95
2019-02-25T20:00:35.351Z,102866.97
2019-02-25T20:03:07.593Z,102874.88
2019-02-25T20:05:41.658Z,102868.10
2019-02-25T20:08:11.436Z,102868.83
2019-02-25T20:10:42.398Z,102875.34
2019-02-25T20:13:14.380Z,102875.16
2019-02-25T20:15:44.403Z,102869.82
2019-02-25T20:18:13.928Z,102864.91
2019-02-25T20:20:45.773Z,102864.86
2019-02-25T20:23:16.371Z,102856.02
2019-02-25T20:25:47.068Z,102847.52
2019-02-25T20:28:18.665Z,102850.05
2019-02-25T20:30:48.964Z,102852.17
2019-02-25T20:33:18.393Z,102853.51
2019-02-25T20:35:51.167Z,102846.67
2019-02-25T20:38:22.523Z,102838.71
2019-02-25T20:40:51.579Z,102837.89
2019-02-25T20:43:23.504Z,102845.95
2019-02-25T20:45:54.643Z,102850.23
2019-02-25T20:48:29.278Z,102844.32
2019-02-25T20:50:59.825Z,102844.51
2019-02-25T20:53:41.142Z,102854.42
2019-02-25T20:56:09.868Z,102856.31
2019-02-25T20:58:40.202Z,102859.80
2019-02-25T21:01:16.101Z,102858.64
2019-02-25T21:03:48.587Z,102852.73
2019-02-25T21:06:22.830Z,102852.20
2019-02-25T21:08:57.537Z,102847.59
2019-02-25T21:11:26.612Z,102851.11
2019-02-25T21:13:56.835Z,102852.98
2019-02-25T21:16:30.575Z,102850.64
2019-02-25T21:19:03.154Z,102859.66
2019-02-25T21:21:34.647Z,102859.16
2019-02-25T21:24:08.803Z,102864.04
2019-02-25T21:26:40.977Z,102864.27
2019-02-25T21:29:10.319Z,102860.37
2019-02-25T21:31:47.259Z,102864.63
2019-02-25T21:34:20.535Z,102869.67
2019-02-25T21:36:47.584Z,102864.91
2019-02-25T21:39:19.122Z,102859.75
2019-02-25T21:41:47.780Z,102861.52
2019-02-25T21:44:23.566Z,102858.84
2019-02-25T21:46:56.254Z,102855.64
2019-02-25T21:49:27.160Z,102858.50
2019-02-25T21:51:57.005Z,102858.24
2019-02-25T21:54:27.846Z,102858.45
2019-02-25T21:56:59.074Z,102860.83
2019-02-25T21:59:32.237Z,102863.31
2019-02-25T22:02:03.737Z,102858.62
2019-02-25T22:04:38.488Z,102865.98
2019-02-25T22:07:10.470Z,102866.69
2019-02-25T22:09:41.880Z,102883.73
2019-02-25T22:12:11.301Z,102876.73
2019-02-25T22:14:41.196Z,102881.58
2019-02-25T22:17:15.130Z,102881.84
2019-02-25T22:19:45.816Z,102881.58
2019-02-25T22:22:24.128Z,102876.23
2019-02-25T22:24:50.486Z,102879.36
2019-02-25T22:27:21.206Z,102883.38
2019-02-25T22:29:53.042Z,102885.12
2019-02-25T22:32:21.744Z,102874.23
2019-02-25T22:34:56.065Z,102868.00
2019-02-25T22:37:29.174Z,102858.72
2019-02-25T22:39:59.501Z,102856.08
2019-02-25T22:42:33.413Z,102852.33
2019-02-25T22:45:02.196Z,102848.87
2019-02-25T22:47:30.742Z,102843.36
2019-02-25T22:50:04.305Z,102839.75
2019-02-25T22:52:37.290Z,102841.64
2019-02-25T22:55:08.184Z,102838.23
2019-02-25T22:57:41.058Z,102840.80
2019-02-25T23:00:22.926Z,102835.95
2019-02-25T23:02:56.825Z,102829.13
2019-02-25T23:05:26.556Z,102823.91
2019-02-25T23:07:55.518Z,102821.08
2019-02-25T23:10:27.899Z,102815.93
2019-02-25T23:12:58.118Z,102817.41
2019-02-25T23:15:30.613Z,102815.30
2019-02-25T23:18:05.275Z,102812.06
2019-02-25T23:20:31.704Z,102821.00
2019-02-25T23:23:04.855Z,102822.84
2019-02-25T23:25:32.419Z,102820.55
2019-02-25T23:28:02.305Z,102819.64
2019-02-25T23:30:30.946Z,102823.04
2019-02-25T23:33:02.070Z,102823.95
2019-02-25T23:35:30.641Z,102822.09
2019-02-25T23:38:03.817Z,102814.89
2019-02-25T23:40:36.010Z,102813.88
2019-02-25T23:43:07.478Z,102811.31
2019-02-25T23:45:37.917Z,102818.86
2019-02-25T23:48:08.955Z,102819.49
2019-02-25T23:50:36.972Z,102815.03
2019-02-25T23:53:12.289Z,102816.20
2019-02-25T23:55:45.156Z,102813.05
2019-02-25T23:58:19.613Z,102806.80
